King of Scandinavia — OVOL2 — position and weather

sailwx.info

Track history (hours):
 
Tides and Currents Weather Stations Pressure Air Temp Water Temp Dewpoint Dewpoint Depression Visibility Wind Speed Wind Dir Waves Ship Positions

King of Scandinavia

Ship's website: http://www.dfds.co.uk/DSW/EN/OnBoard/na/KING.htm

Last reported at 2017-Jun-23 20:01 UTC. Time now 2017-Jun-23 20:27 UTC.
Position N 54°29' E 000°03'.

Length 166 m; beam 27.6 m; draft 6.2 m.

Type: Ship. MMSI: 220449000.

Date/timePositionNaut miles runAvg speedWind from/ knotsBaromVisibWave heightAir tempDewpointWater temp
2017-Jun-23 20:01N 54°29' E 000°03'816.8
2017-Jun-23 19:31N 54°34' W 000°09'917.2
2017-Jun-23 19:01N 54°38' W 000°22'2017.7
2017-Jun-23 17:54N 54°48' W 000°51'718.0
2017-Jun-23 17:31N 54°52' W 001°01'918.0
2017-Jun-23 17:00N 54°57' W 001°14'715.0
2017-Jun-23 16:30N 55°00' W 001°26'1 2.6
2017-Jun-23 16:00N 54°59' W 001°27'0 0.0
2017-Jun-23 15:29N 54°59' W 001°27'0 0.0
2017-Jun-23 14:59N 54°59' W 001°27'0 0.0
2017-Jun-23 13:59N 54°59' W 001°27'0 0.0
2017-Jun-23 13:29N 54°59' W 001°27'0 0.0
2017-Jun-23 12:54N 54°59' W 001°27'0 0.0
2017-Jun-23 12:28N 54°59' W 001°27'0 0.0
2017-Jun-23 11:58N 54°59' W 001°27'0 0.0
2017-Jun-23 11:30N 54°59' W 001°27'0 0.0
2017-Jun-23 11:00N 54°59' W 001°27'0 0.0
2017-Jun-23 10:25N 54°59' W 001°27'0 0.0
2017-Jun-23 09:59N 54°59' W 001°27'0 0.0
2017-Jun-23 09:31N 54°59' W 001°27'0 0.0
2017-Jun-23 09:00N 54°59' W 001°27'0 0.0
2017-Jun-23 08:31N 54°59' W 001°27'0 0.8
2017-Jun-23 08:00N 54°60' W 001°27'3 6.5
2017-Jun-23 07:31N 55°01' W 001°21'611.6
2017-Jun-23 07:00N 54°58' W 001°13'713.6
2017-Jun-23 06:30N 54°54' W 001°03'713.7
2017-Jun-23 06:00N 54°50' W 000°53'815.5
2017-Jun-23 05:30N 54°46' W 000°41'1214.8
2017-Jun-23 04:40N 54°39' W 000°23'314.4
2017-Jun-23 04:29N 54°38' W 000°20'815.8
2017-Jun-23 04:00N 54°34' W 000°09'816.3
2017-Jun-23 03:30N 54°30' E 000°03'816.1
2017-Jun-23 03:00N 54°25' E 000°15'815.9
2017-Jun-23 02:30N 54°21' E 000°26'17117.3
2017-Jun-22 16:36N 52°37' E 004°15'217.8
2017-Jun-22 16:30N 52°36' E 004°17'917.8
2017-Jun-22 16:00N 52°30' E 004°28'5 9.6
2017-Jun-22 15:30N 52°28' E 004°35'0 0.0
2017-Jun-22 15:00N 52°28' E 004°35'0 0.0
2017-Jun-22 13:59N 52°28' E 004°35'0 0.0
2017-Jun-22 13:26N 52°28' E 004°35'0 0.0
2017-Jun-22 12:59N 52°28' E 004°35'0 0.0
2017-Jun-22 12:29N 52°28' E 004°35'0 0.0
2017-Jun-22 11:59N 52°28' E 004°35'0 0.0
2017-Jun-22 11:29N 52°28' E 004°35'0 0.0
2017-Jun-22 10:59N 52°28' E 004°35'0 0.0
2017-Jun-22 10:29N 52°28' E 004°35'0 0.0
2017-Jun-22 09:59N 52°28' E 004°35'0 0.0
2017-Jun-22 09:29N 52°28' E 004°35'0 0.0
2017-Jun-22 08:59N 52°28' E 004°35'0 0.0
2017-Jun-22 08:29N 52°28' E 004°35'0 0.0
2017-Jun-22 07:59N 52°28' E 004°35'0 0.3
2017-Jun-22 07:31N 52°28' E 004°35'611.2
2017-Jun-22 07:01N 52°30' E 004°26'814.9
2017-Jun-22 06:30N 52°35' E 004°18'817.0
2017-Jun-22 06:00N 52°41' E 004°07'918.0
2017-Jun-22 05:29N 52°47' E 003°56'918.2
2017-Jun-22 05:00N 52°53' E 003°45'1018.2
2017-Jun-22 04:27N 52°60' E 003°32'7618.6
2017-Jun-22 00:21N 53°48' E 001°54'718.2
2017-Jun-21 23:59N 53°52' E 001°45'918.0
2017-Jun-21 23:30N 53°56' E 001°32'4317.8
2017-Jun-21 21:06N 54°19' E 000°30'217.9
2017-Jun-21 21:00N 54°20' E 000°27'917.9
2017-Jun-21 20:30N 54°25' E 000°15'917.3
2017-Jun-21 20:01N 54°30' E 000°02'816.3
2017-Jun-21 19:30N 54°34' W 000°10'816.3
2017-Jun-21 19:00N 54°38' W 000°21'2316.4
2017-Jun-21 17:36N 54°51' W 000°55'216.7
2017-Jun-21 17:30N 54°52' W 000°58'816.7
2017-Jun-21 17:00N 54°56' W 001°10'815.9
2017-Jun-21 16:30N 55°00' W 001°21'3 6.7
2017-Jun-21 16:00N 54°59' W 001°27'0 0.0
2017-Jun-21 15:30N 54°59' W 001°27'0 0.0
2017-Jun-21 15:00N 54°59' W 001°27'0 0.0
2017-Jun-21 14:30N 54°59' W 001°27'0 0.0
2017-Jun-21 13:30N 54°59' W 001°27'0 0.0
2017-Jun-21 13:00N 54°59' W 001°27'0 0.0
2017-Jun-21 12:30N 54°59' W 001°27'0 0.0
2017-Jun-21 12:00N 54°59' W 001°27'0 0.0
2017-Jun-21 11:30N 54°59' W 001°27'0 0.0
2017-Jun-21 11:00N 54°59' W 001°27'0 0.0
2017-Jun-21 10:30N 54°59' W 001°27'0 0.0
2017-Jun-21 10:00N 54°59' W 001°27'0 0.0
2017-Jun-21 09:30N 54°59' W 001°27'0 0.0
2017-Jun-21 09:00N 54°59' W 001°27'0 0.0
2017-Jun-21 08:30N 54°59' W 001°27'0 0.5
2017-Jun-21 08:00N 54°60' W 001°27'4 8.4
2017-Jun-21 07:30N 55°00' W 001°20'714.1
2017-Jun-21 07:00N 54°56' W 001°09'714.1
2017-Jun-21 06:30N 54°53' W 000°58'815.4
2017-Jun-21 06:00N 54°49' W 000°47'816.1
2017-Jun-21 05:30N 54°45' W 000°35'1015.8
2017-Jun-21 04:51N 54°39' W 000°20'515.8
2017-Jun-21 04:30N 54°36' W 000°12'816.7
2017-Jun-21 04:00N 54°31' W 000°01'917.7
2017-Jun-21 03:30N 54°26' E 000°12'917.4
2017-Jun-21 03:00N 54°22' E 000°25'3617.1
2017-Jun-21 00:54N 54°02' E 001°16'6018.4
2017-Jun-20 21:38N 53°27' E 002°39'518.7
2017-Jun-20 21:22N 53°23' E 002°45'718.6
2017-Jun-20 20:59N 53°19' E 002°54'918.4
2017-Jun-20 20:30N 53°13' E 003°05'918.2
2017-Jun-20 20:00N 53°07' E 003°17'917.7
2017-Jun-20 19:30N 53°01' E 003°28'917.5
2017-Jun-20 19:00N 52°55' E 003°38'917.4
2017-Jun-20 18:30N 52°50' E 003°49'816.7
2017-Jun-20 18:00N 52°45' E 004°00'714.7
2017-Jun-20 17:30N 52°40' E 004°09'714.4
2017-Jun-20 17:00N 52°35' E 004°18'714.2
2017-Jun-20 16:30N 52°30' E 004°27'611.2
2017-Jun-20 16:01N 52°28' E 004°35'0 0.1
2017-Jun-20 15:30N 52°28' E 004°35'0 0.0
2017-Jun-20 15:00N 52°28' E 004°35'0 0.0
2017-Jun-20 14:30N 52°28' E 004°35'0 0.0
2017-Jun-20 13:30N 52°28' E 004°35'0 0.0
2017-Jun-20 13:00N 52°28' E 004°35'0 0.0
2017-Jun-20 12:30N 52°28' E 004°35'0 0.0
2017-Jun-20 12:00N 52°28' E 004°35'0 0.0
2017-Jun-20 11:30N 52°28' E 004°35'0 0.0
2017-Jun-20 11:00N 52°28' E 004°35'0 0.0
2017-Jun-20 10:30N 52°28' E 004°35'0 0.0
2017-Jun-20 09:57N 52°28' E 004°35'0 0.0
2017-Jun-20 09:30N 52°28' E 004°35'0 0.0
2017-Jun-20 09:00N 52°28' E 004°35'0 0.0
2017-Jun-20 08:30N 52°28' E 004°35'0 0.0
2017-Jun-20 08:00N 52°28' E 004°35'0 0.3
2017-Jun-20 07:30N 52°28' E 004°35'510.3
2017-Jun-20 07:00N 52°29' E 004°27'815.6
2017-Jun-20 06:30N 52°35' E 004°18'815.5
2017-Jun-20 06:00N 52°40' E 004°08'815.5
2017-Jun-20 05:30N 52°45' E 003°58'815.5
2017-Jun-20 05:00N 52°50' E 003°48'815.9
2017-Jun-20 04:30N 52°56' E 003°39'816.2
2017-Jun-20 04:00N 53°02' E 003°30'1318.3
2017-Jun-20 03:16N 53°10' E 003°12'518.6
2017-Jun-20 03:00N 53°13' E 003°06'8218.2
2017-Jun-19 22:31N 54°02' E 001°16'017.1
2017-Jun-19 22:30N 54°02' E 001°16'917.4
2017-Jun-19 22:00N 54°07' E 001°04'917.5
2017-Jun-19 21:30N 54°12' E 000°51'917.5
2017-Jun-19 21:00N 54°16' E 000°38'917.6
2017-Jun-19 20:30N 54°21' E 000°26'917.5
2017-Jun-19 20:00N 54°26' E 000°13'917.3
2017-Jun-19 19:30N 54°30' E 000°00'917.2
2017-Jun-19 19:00N 54°35' W 000°12'917.2
2017-Jun-19 18:30N 54°39' W 000°25'1917.0
2017-Jun-19 17:23N 54°49' W 000°53'717.0
2017-Jun-19 17:00N 54°53' W 001°02'917.2
2017-Jun-19 16:30N 54°58' W 001°15'713.7
2017-Jun-19 16:00N 55°01' W 001°26'1 2.6
2017-Jun-19 15:30N 54°59' W 001°27'0 0.0
2017-Jun-19 14:59N 54°59' W 001°27'0 0.0
2017-Jun-19 14:29N 54°59' W 001°27'0 0.0
2017-Jun-19 13:29N 54°59' W 001°27'0 0.0
2017-Jun-19 12:47N 54°59' W 001°27'0 0.0
2017-Jun-19 12:29N 54°59' W 001°27'0 0.0
2017-Jun-19 11:59N 54°59' W 001°27'0 0.0
2017-Jun-19 11:29N 54°59' W 001°27'0 0.0
2017-Jun-19 10:59N 54°59' W 001°27'0 0.0
2017-Jun-19 10:29N 54°59' W 001°27'0 0.0
2017-Jun-19 09:59N 54°59' W 001°27'0 0.0
2017-Jun-19 09:23N 54°59' W 001°27'0 0.0
2017-Jun-19 08:59N 54°59' W 001°27'0 0.0
2017-Jun-19 08:23N 54°59' W 001°27'0 0.1
2017-Jun-19 08:00N 54°59' W 001°27'4 8.7
2017-Jun-19 07:30N 54°60' W 001°19'713.6
2017-Jun-19 07:00N 54°56' W 001°09'714.8
2017-Jun-19 06:30N 54°52' W 000°59'815.9
2017-Jun-19 06:00N 54°48' W 000°47'1616.2
2017-Jun-19 05:01N 54°39' W 000°24'018.2
2017-Jun-19 05:00N 54°39' W 000°23'918.3
2017-Jun-19 04:30N 54°34' W 000°10'918.3
2017-Jun-19 04:00N 54°29' E 000°03'918.2
2017-Jun-19 03:30N 54°24' E 000°16'918.0
2017-Jun-19 03:00N 54°20' E 000°29'14716.4
2017-Jun-18 18:03N 52°51' E 003°47'215.7
2017-Jun-18 17:55N 52°50' E 003°50'615.5
2017-Jun-18 17:30N 52°46' E 003°58'815.1
2017-Jun-18 17:00N 52°41' E 004°07'715.0
2017-Jun-18 16:31N 52°36' E 004°16'714.1
2017-Jun-18 16:00N 52°31' E 004°25'611.8
2017-Jun-18 15:31N 52°28' E 004°33'1 2.4
2017-Jun-18 14:58N 52°28' E 004°35'0 0.0
2017-Jun-18 13:55N 52°28' E 004°35'0 0.0
2017-Jun-18 13:28N 52°28' E 004°35'0 0.0
2017-Jun-18 12:58N 52°28' E 004°35'0 0.0
2017-Jun-18 12:28N 52°28' E 004°35'0 0.0
2017-Jun-18 11:58N 52°28' E 004°35'0 0.0
2017-Jun-18 11:28N 52°28' E 004°35'0 0.0
2017-Jun-18 10:58N 52°28' E 004°35'0 0.0
2017-Jun-18 10:28N 52°28' E 004°35'0 0.0
2017-Jun-18 09:58N 52°28' E 004°35'0 0.0
2017-Jun-18 09:28N 52°28' E 004°35'0 0.0
2017-Jun-18 08:58N 52°28' E 004°35'0 0.0
2017-Jun-18 08:28N 52°28' E 004°35'0 0.0
2017-Jun-18 07:58N 52°28' E 004°35'0 0.3
2017-Jun-18 07:31N 52°28' E 004°35'714.3
2017-Jun-18 07:00N 52°31' E 004°24'917.8
2017-Jun-18 06:30N 52°37' E 004°14'1019.1
2017-Jun-18 06:01N 52°43' E 004°02'1019.4
2017-Jun-18 05:31N 52°50' E 003°50'1019.2
2017-Jun-18 05:00N 52°56' E 003°38'13418.2
2017-Jun-17 21:41N 54°16' E 000°38'318.5
2017-Jun-17 21:31N 54°18' E 000°33'918.3
2017-Jun-17 21:01N 54°23' E 000°20'918.2
2017-Jun-17 20:31N 54°27' E 000°06'918.2
2017-Jun-17 20:01N 54°32' W 000°07'918.4
2017-Jun-17 19:31N 54°37' W 000°20'3218.1
2017-Jun-17 17:46N 54°54' W 001°07'517.8
2017-Jun-17 17:30N 54°57' W 001°13'815.2
2017-Jun-17 16:59N 55°01' W 001°25'2 3.2
2017-Jun-17 16:30N 54°59' W 001°27'0 0.0
2017-Jun-17 16:00N 54°59' W 001°27'0 0.0
2017-Jun-17 15:30N 54°59' W 001°27'0 0.0
2017-Jun-17 15:00N 54°59' W 001°27'0 0.0
2017-Jun-17 14:30N 54°59' W 001°27'0 0.0
2017-Jun-17 13:31N 54°59' W 001°27'0 0.0
2017-Jun-17 13:01N 54°59' W 001°27'0 0.0
2017-Jun-17 12:23N 54°59' W 001°27'0 0.0
2017-Jun-17 11:59N 54°59' W 001°27'0 0.0
2017-Jun-17 11:23N 54°59' W 001°27'0 0.0
2017-Jun-17 10:53N 54°59' W 001°27'0 0.0
2017-Jun-17 10:23N 54°59' W 001°27'0 0.0
2017-Jun-17 09:53N 54°59' W 001°27'0 0.0
2017-Jun-17 09:29N 54°59' W 001°27'0 0.0
2017-Jun-17 08:59N 54°59' W 001°27'0 0.0
2017-Jun-17 08:23N 54°59' W 001°27'0 0.4
2017-Jun-17 08:01N 54°60' W 001°27'4 8.5
2017-Jun-17 07:31N 55°00' W 001°19'714.6
2017-Jun-17 07:00N 54°56' W 001°09'3117.7
2017-Jun-17 05:16N 54°40' W 000°24'517.9
2017-Jun-17 05:00N 54°37' W 000°17'918.3
2017-Jun-17 04:30N 54°32' W 000°04'918.3
2017-Jun-17 04:00N 54°27' E 000°09'918.3
2017-Jun-17 03:30N 54°22' E 000°23'17316.1
2017-Jun-16 16:45N 52°38' E 004°15'314.0
2017-Jun-16 16:30N 52°35' E 004°19'713.5
2017-Jun-16 16:00N 52°31' E 004°27'611.5
2017-Jun-16 15:30N 52°28' E 004°35'0 0.1
2017-Jun-16 15:00N 52°28' E 004°35'0 0.0
2017-Jun-16 14:29N 52°28' E 004°35'0 0.0
2017-Jun-16 13:26N 52°28' E 004°35'0 0.0
2017-Jun-16 12:59N 52°28' E 004°35'0 0.0
2017-Jun-16 12:29N 52°28' E 004°35'0 0.0
2017-Jun-16 11:59N 52°28' E 004°35'0 0.0
2017-Jun-16 11:29N 52°28' E 004°35'0 0.0
2017-Jun-16 10:59N 52°28' E 004°35'0 0.0
2017-Jun-16 10:29N 52°28' E 004°35'0 0.0
2017-Jun-16 09:59N 52°28' E 004°35'0 0.0
2017-Jun-16 09:29N 52°28' E 004°35'0 0.0
2017-Jun-16 08:59N 52°28' E 004°35'0 0.0
2017-Jun-16 08:26N 52°28' E 004°35'0 0.0
2017-Jun-16 07:59N 52°28' E 004°35'0 0.0
2017-Jun-16 07:30N 52°28' E 004°35'5 9.1
2017-Jun-16 07:00N 52°29' E 004°28'917.7
2017-Jun-16 06:30N 52°36' E 004°18'917.7
2017-Jun-16 05:59N 52°41' E 004°06'714.6
2017-Jun-16 05:30N 52°46' E 003°58'15018.3
2017-Jun-15 21:20N 54°15' E 000°35'720.3
2017-Jun-15 21:00N 54°17' E 000°25'1020.5
2017-Jun-15 20:30N 54°23' E 000°10'1020.6
2017-Jun-15 20:00N 54°29' W 000°04'1020.6
2017-Jun-15 19:30N 54°36' W 000°18'2320.3
2017-Jun-15 18:23N 54°49' W 000°50'820.2
2017-Jun-15 18:00N 54°53' W 001°02'917.3
2017-Jun-15 17:30N 54°57' W 001°14'714.6
2017-Jun-15 17:00N 55°00' W 001°26'1 2.4
2017-Jun-15 16:30N 54°59' W 001°27'0 0.0
2017-Jun-15 16:00N 54°59' W 001°27'0 0.0
2017-Jun-15 15:30N 54°59' W 001°27'0 0.0
2017-Jun-15 14:59N 54°59' W 001°27'0 0.0
2017-Jun-15 13:50N 54°59' W 001°27'0 0.0
2017-Jun-15 13:24N 54°59' W 001°27'0 0.0
2017-Jun-15 12:53N 54°59' W 001°27'0 0.0
2017-Jun-15 12:26N 54°59' W 001°27'0 0.0
2017-Jun-15 12:00N 54°59' W 001°27'0 0.0
2017-Jun-15 11:30N 54°59' W 001°27'0 0.0
2017-Jun-15 10:59N 54°59' W 001°27'0 0.0
2017-Jun-15 10:23N 54°59' W 001°27'0 0.0
2017-Jun-15 09:53N 54°59' W 001°27'0 0.0
2017-Jun-15 09:23N 54°59' W 001°27'0 0.0
2017-Jun-15 08:53N 54°59' W 001°27'0 0.0
2017-Jun-15 08:26N 54°59' W 001°27'1 1.6
2017-Jun-15 08:00N 55°00' W 001°27'5 9.2
2017-Jun-15 07:30N 54°60' W 001°19'714.8
2017-Jun-15 07:00N 54°55' W 001°08'714.8
2017-Jun-15 06:30N 54°51' W 000°57'814.7
2017-Jun-15 05:58N 54°47' W 000°46'714.1
2017-Jun-15 05:27N 54°43' W 000°35'814.3
2017-Jun-15 04:55N 54°39' W 000°24'614.1
2017-Jun-15 04:30N 54°36' W 000°15'714.3
2017-Jun-15 04:00N 54°32' W 000°05'714.5
2017-Jun-15 03:30N 54°28' E 000°06'714.2
2017-Jun-15 03:00N 54°25' E 000°16'714.5
2017-Jun-15 02:30N 54°21' E 000°26'714.5
2017-Jun-15 02:00N 54°17' E 000°37'917.0
2017-Jun-15 01:30N 54°12' E 000°49'919.1
2017-Jun-15 01:00N 54°07' E 001°03'918.8
2017-Jun-15 00:30N 54°02' E 001°16'11018.1
2017-Jun-14 18:26N 52°55' E 003°42'919.1
2017-Jun-14 17:59N 52°49' E 003°52'918.8
2017-Jun-14 17:30N 52°44' E 004°05'919.0
2017-Jun-14 17:00N 52°37' E 004°16'917.4
2017-Jun-14 16:30N 52°32' E 004°27'612.2
2017-Jun-14 16:00N 52°28' E 004°35'0 0.6
2017-Jun-14 15:29N 52°28' E 004°35'0 0.0
2017-Jun-14 14:59N 52°28' E 004°35'0 0.0
2017-Jun-14 13:59N 52°28' E 004°35'0 0.0
2017-Jun-14 13:29N 52°28' E 004°35'0 0.0
2017-Jun-14 12:59N 52°28' E 004°35'0 0.0
2017-Jun-14 12:29N 52°28' E 004°35'0 0.0
2017-Jun-14 11:59N 52°28' E 004°35'0 0.0
2017-Jun-14 11:29N 52°28' E 004°35'0 0.0
2017-Jun-14 10:56N 52°28' E 004°35'0 0.0
2017-Jun-14 10:29N 52°28' E 004°35'0 0.0
2017-Jun-14 09:59N 52°28' E 004°35'0 0.0
2017-Jun-14 09:29N 52°28' E 004°35'0 0.0
2017-Jun-14 08:59N 52°28' E 004°35'0 0.0
2017-Jun-14 08:29N 52°28' E 004°35'0 0.0
2017-Jun-14 07:59N 52°28' E 004°35'0 0.4
2017-Jun-14 07:31N 52°28' E 004°35'713.5
2017-Jun-14 07:00N 52°31' E 004°25'816.9
2017-Jun-14 06:30N 52°37' E 004°15'917.2
2017-Jun-14 06:00N 52°42' E 004°04'917.1
2017-Jun-14 05:30N 52°48' E 003°54'917.3
2017-Jun-14 05:00N 52°54' E 003°43'917.4
2017-Jun-14 04:30N 52°59' E 003°32'12817.1
2017-Jun-13 21:00N 54°16' E 000°38'917.8
2017-Jun-13 20:30N 54°21' E 000°26'  
Track history (hours):
 
Tides and Currents Weather Stations Pressure Air Temp Water Temp Dewpoint Dewpoint Depression Visibility Wind Speed Wind Dir Waves Ship Positions

King of Scandinavia

Ship's website: http://www.dfds.co.uk/DSW/EN/OnBoard/na/KING.htm

Last reported at 2017-Jun-23 20:01 UTC. Time now 2017-Jun-23 20:27 UTC.
Position N 54°29' E 000°03'.

Length 166 m; beam 27.6 m; draft 6.2 m.

Type: Ship. MMSI: 220449000.

Date/timePositionNaut miles runAvg speedWind from/ knotsBaromVisibWave heightAir tempDewpointWater temp
2017-Jun-23 20:01N 54°29' E 000°03'816.8
2017-Jun-23 19:31N 54°34' W 000°09'917.2
2017-Jun-23 19:01N 54°38' W 000°22'2017.7
2017-Jun-23 17:54N 54°48' W 000°51'718.0
2017-Jun-23 17:31N 54°52' W 001°01'918.0
2017-Jun-23 17:00N 54°57' W 001°14'715.0
2017-Jun-23 16:30N 55°00' W 001°26'1 2.6
2017-Jun-23 16:00N 54°59' W 001°27'0 0.0
2017-Jun-23 15:29N 54°59' W 001°27'0 0.0
2017-Jun-23 14:59N 54°59' W 001°27'0 0.0
2017-Jun-23 13:59N 54°59' W 001°27'0 0.0
2017-Jun-23 13:29N 54°59' W 001°27'0 0.0
2017-Jun-23 12:54N 54°59' W 001°27'0 0.0
2017-Jun-23 12:28N 54°59' W 001°27'0 0.0
2017-Jun-23 11:58N 54°59' W 001°27'0 0.0
2017-Jun-23 11:30N 54°59' W 001°27'0 0.0
2017-Jun-23 11:00N 54°59' W 001°27'0 0.0
2017-Jun-23 10:25N 54°59' W 001°27'0 0.0
2017-Jun-23 09:59N 54°59' W 001°27'0 0.0
2017-Jun-23 09:31N 54°59' W 001°27'0 0.0
2017-Jun-23 09:00N 54°59' W 001°27'0 0.0
2017-Jun-23 08:31N 54°59' W 001°27'0 0.8
2017-Jun-23 08:00N 54°60' W 001°27'3 6.5
2017-Jun-23 07:31N 55°01' W 001°21'611.6
2017-Jun-23 07:00N 54°58' W 001°13'713.6
2017-Jun-23 06:30N 54°54' W 001°03'713.7
2017-Jun-23 06:00N 54°50' W 000°53'815.5
2017-Jun-23 05:30N 54°46' W 000°41'1214.8
2017-Jun-23 04:40N 54°39' W 000°23'314.4
2017-Jun-23 04:29N 54°38' W 000°20'815.8
2017-Jun-23 04:00N 54°34' W 000°09'816.3
2017-Jun-23 03:30N 54°30' E 000°03'816.1
2017-Jun-23 03:00N 54°25' E 000°15'815.9
2017-Jun-23 02:30N 54°21' E 000°26'17117.3
2017-Jun-22 16:36N 52°37' E 004°15'217.8
2017-Jun-22 16:30N 52°36' E 004°17'917.8
2017-Jun-22 16:00N 52°30' E 004°28'5 9.6
2017-Jun-22 15:30N 52°28' E 004°35'0 0.0
2017-Jun-22 15:00N 52°28' E 004°35'0 0.0
2017-Jun-22 13:59N 52°28' E 004°35'0 0.0
2017-Jun-22 13:26N 52°28' E 004°35'0 0.0
2017-Jun-22 12:59N 52°28' E 004°35'0 0.0
2017-Jun-22 12:29N 52°28' E 004°35'0 0.0
2017-Jun-22 11:59N 52°28' E 004°35'0 0.0
2017-Jun-22 11:29N 52°28' E 004°35'0 0.0
2017-Jun-22 10:59N 52°28' E 004°35'0 0.0
2017-Jun-22 10:29N 52°28' E 004°35'0 0.0
2017-Jun-22 09:59N 52°28' E 004°35'0 0.0
2017-Jun-22 09:29N 52°28' E 004°35'0 0.0
2017-Jun-22 08:59N 52°28' E 004°35'0 0.0
2017-Jun-22 08:29N 52°28' E 004°35'0 0.0
2017-Jun-22 07:59N 52°28' E 004°35'0 0.3
2017-Jun-22 07:31N 52°28' E 004°35'611.2
2017-Jun-22 07:01N 52°30' E 004°26'814.9
2017-Jun-22 06:30N 52°35' E 004°18'817.0
2017-Jun-22 06:00N 52°41' E 004°07'918.0
2017-Jun-22 05:29N 52°47' E 003°56'918.2
2017-Jun-22 05:00N 52°53' E 003°45'1018.2
2017-Jun-22 04:27N 52°60' E 003°32'7618.6
2017-Jun-22 00:21N 53°48' E 001°54'718.2
2017-Jun-21 23:59N 53°52' E 001°45'918.0
2017-Jun-21 23:30N 53°56' E 001°32'4317.8
2017-Jun-21 21:06N 54°19' E 000°30'217.9
2017-Jun-21 21:00N 54°20' E 000°27'917.9
2017-Jun-21 20:30N 54°25' E 000°15'917.3
2017-Jun-21 20:01N 54°30' E 000°02'816.3
2017-Jun-21 19:30N 54°34' W 000°10'816.3
2017-Jun-21 19:00N 54°38' W 000°21'2316.4
2017-Jun-21 17:36N 54°51' W 000°55'216.7
2017-Jun-21 17:30N 54°52' W 000°58'816.7
2017-Jun-21 17:00N 54°56' W 001°10'815.9
2017-Jun-21 16:30N 55°00' W 001°21'3 6.7
2017-Jun-21 16:00N 54°59' W 001°27'0 0.0
2017-Jun-21 15:30N 54°59' W 001°27'0 0.0
2017-Jun-21 15:00N 54°59' W 001°27'0 0.0
2017-Jun-21 14:30N 54°59' W 001°27'0 0.0
2017-Jun-21 13:30N 54°59' W 001°27'0 0.0
2017-Jun-21 13:00N 54°59' W 001°27'0 0.0
2017-Jun-21 12:30N 54°59' W 001°27'0 0.0
2017-Jun-21 12:00N 54°59' W 001°27'0 0.0
2017-Jun-21 11:30N 54°59' W 001°27'0 0.0
2017-Jun-21 11:00N 54°59' W 001°27'0 0.0
2017-Jun-21 10:30N 54°59' W 001°27'0 0.0
2017-Jun-21 10:00N 54°59' W 001°27'0 0.0
2017-Jun-21 09:30N 54°59' W 001°27'0 0.0
2017-Jun-21 09:00N 54°59' W 001°27'0 0.0
2017-Jun-21 08:30N 54°59' W 001°27'0 0.5
2017-Jun-21 08:00N 54°60' W 001°27'4 8.4
2017-Jun-21 07:30N 55°00' W 001°20'714.1
2017-Jun-21 07:00N 54°56' W 001°09'714.1
2017-Jun-21 06:30N 54°53' W 000°58'815.4
2017-Jun-21 06:00N 54°49' W 000°47'816.1
2017-Jun-21 05:30N 54°45' W 000°35'1015.8
2017-Jun-21 04:51N 54°39' W 000°20'515.8
2017-Jun-21 04:30N 54°36' W 000°12'816.7
2017-Jun-21 04:00N 54°31' W 000°01'917.7
2017-Jun-21 03:30N 54°26' E 000°12'917.4
2017-Jun-21 03:00N 54°22' E 000°25'3617.1
2017-Jun-21 00:54N 54°02' E 001°16'6018.4
2017-Jun-20 21:38N 53°27' E 002°39'518.7
2017-Jun-20 21:22N 53°23' E 002°45'718.6
2017-Jun-20 20:59N 53°19' E 002°54'918.4
2017-Jun-20 20:30N 53°13' E 003°05'918.2
2017-Jun-20 20:00N 53°07' E 003°17'917.7
2017-Jun-20 19:30N 53°01' E 003°28'917.5
2017-Jun-20 19:00N 52°55' E 003°38'917.4
2017-Jun-20 18:30N 52°50' E 003°49'816.7
2017-Jun-20 18:00N 52°45' E 004°00'714.7
2017-Jun-20 17:30N 52°40' E 004°09'714.4
2017-Jun-20 17:00N 52°35' E 004°18'714.2
2017-Jun-20 16:30N 52°30' E 004°27'611.2
2017-Jun-20 16:01N 52°28' E 004°35'0 0.1
2017-Jun-20 15:30N 52°28' E 004°35'0 0.0
2017-Jun-20 15:00N 52°28' E 004°35'0 0.0
2017-Jun-20 14:30N 52°28' E 004°35'0 0.0
2017-Jun-20 13:30N 52°28' E 004°35'0 0.0
2017-Jun-20 13:00N 52°28' E 004°35'0 0.0
2017-Jun-20 12:30N 52°28' E 004°35'0 0.0
2017-Jun-20 12:00N 52°28' E 004°35'0 0.0
2017-Jun-20 11:30N 52°28' E 004°35'0 0.0
2017-Jun-20 11:00N 52°28' E 004°35'0 0.0
2017-Jun-20 10:30N 52°28' E 004°35'0 0.0
2017-Jun-20 09:57N 52°28' E 004°35'0 0.0
2017-Jun-20 09:30N 52°28' E 004°35'0 0.0
2017-Jun-20 09:00N 52°28' E 004°35'0 0.0
2017-Jun-20 08:30N 52°28' E 004°35'0 0.0
2017-Jun-20 08:00N 52°28' E 004°35'0 0.3
2017-Jun-20 07:30N 52°28' E 004°35'510.3
2017-Jun-20 07:00N 52°29' E 004°27'815.6
2017-Jun-20 06:30N 52°35' E 004°18'815.5
2017-Jun-20 06:00N 52°40' E 004°08'815.5
2017-Jun-20 05:30N 52°45' E 003°58'815.5
2017-Jun-20 05:00N 52°50' E 003°48'815.9
2017-Jun-20 04:30N 52°56' E 003°39'816.2
2017-Jun-20 04:00N 53°02' E 003°30'1318.3
2017-Jun-20 03:16N 53°10' E 003°12'518.6
2017-Jun-20 03:00N 53°13' E 003°06'8218.2
2017-Jun-19 22:31N 54°02' E 001°16'017.1
2017-Jun-19 22:30N 54°02' E 001°16'917.4
2017-Jun-19 22:00N 54°07' E 001°04'917.5
2017-Jun-19 21:30N 54°12' E 000°51'917.5
2017-Jun-19 21:00N 54°16' E 000°38'917.6
2017-Jun-19 20:30N 54°21' E 000°26'917.5
2017-Jun-19 20:00N 54°26' E 000°13'917.3
2017-Jun-19 19:30N 54°30' E 000°00'917.2
2017-Jun-19 19:00N 54°35' W 000°12'917.2
2017-Jun-19 18:30N 54°39' W 000°25'1917.0
2017-Jun-19 17:23N 54°49' W 000°53'717.0
2017-Jun-19 17:00N 54°53' W 001°02'917.2
2017-Jun-19 16:30N 54°58' W 001°15'713.7
2017-Jun-19 16:00N 55°01' W 001°26'1 2.6
2017-Jun-19 15:30N 54°59' W 001°27'0 0.0
2017-Jun-19 14:59N 54°59' W 001°27'0 0.0
2017-Jun-19 14:29N 54°59' W 001°27'0 0.0
2017-Jun-19 13:29N 54°59' W 001°27'0 0.0
2017-Jun-19 12:47N 54°59' W 001°27'0 0.0
2017-Jun-19 12:29N 54°59' W 001°27'0 0.0
2017-Jun-19 11:59N 54°59' W 001°27'0 0.0
2017-Jun-19 11:29N 54°59' W 001°27'0 0.0
2017-Jun-19 10:59N 54°59' W 001°27'0 0.0
2017-Jun-19 10:29N 54°59' W 001°27'0 0.0
2017-Jun-19 09:59N 54°59' W 001°27'0 0.0
2017-Jun-19 09:23N 54°59' W 001°27'0 0.0
2017-Jun-19 08:59N 54°59' W 001°27'0 0.0
2017-Jun-19 08:23N 54°59' W 001°27'0 0.1
2017-Jun-19 08:00N 54°59' W 001°27'4 8.7
2017-Jun-19 07:30N 54°60' W 001°19'713.6
2017-Jun-19 07:00N 54°56' W 001°09'714.8
2017-Jun-19 06:30N 54°52' W 000°59'815.9
2017-Jun-19 06:00N 54°48' W 000°47'1616.2
2017-Jun-19 05:01N 54°39' W 000°24'018.2
2017-Jun-19 05:00N 54°39' W 000°23'918.3
2017-Jun-19 04:30N 54°34' W 000°10'918.3
2017-Jun-19 04:00N 54°29' E 000°03'918.2
2017-Jun-19 03:30N 54°24' E 000°16'918.0
2017-Jun-19 03:00N 54°20' E 000°29'14716.4
2017-Jun-18 18:03N 52°51' E 003°47'215.7
2017-Jun-18 17:55N 52°50' E 003°50'615.5
2017-Jun-18 17:30N 52°46' E 003°58'815.1
2017-Jun-18 17:00N 52°41' E 004°07'715.0
2017-Jun-18 16:31N 52°36' E 004°16'714.1
2017-Jun-18 16:00N 52°31' E 004°25'611.8
2017-Jun-18 15:31N 52°28' E 004°33'1 2.4
2017-Jun-18 14:58N 52°28' E 004°35'0 0.0
2017-Jun-18 13:55N 52°28' E 004°35'0 0.0
2017-Jun-18 13:28N 52°28' E 004°35'0 0.0
2017-Jun-18 12:58N 52°28' E 004°35'0 0.0
2017-Jun-18 12:28N 52°28' E 004°35'0 0.0
2017-Jun-18 11:58N 52°28' E 004°35'0 0.0
2017-Jun-18 11:28N 52°28' E 004°35'0 0.0
2017-Jun-18 10:58N 52°28' E 004°35'0 0.0
2017-Jun-18 10:28N 52°28' E 004°35'0 0.0
2017-Jun-18 09:58N 52°28' E 004°35'0 0.0
2017-Jun-18 09:28N 52°28' E 004°35'0 0.0
2017-Jun-18 08:58N 52°28' E 004°35'0 0.0
2017-Jun-18 08:28N 52°28' E 004°35'0 0.0
2017-Jun-18 07:58N 52°28' E 004°35'0 0.3
2017-Jun-18 07:31N 52°28' E 004°35'714.3
2017-Jun-18 07:00N 52°31' E 004°24'917.8
2017-Jun-18 06:30N 52°37' E 004°14'1019.1
2017-Jun-18 06:01N 52°43' E 004°02'1019.4
2017-Jun-18 05:31N 52°50' E 003°50'1019.2
2017-Jun-18 05:00N 52°56' E 003°38'13418.2
2017-Jun-17 21:41N 54°16' E 000°38'318.5
2017-Jun-17 21:31N 54°18' E 000°33'918.3
2017-Jun-17 21:01N 54°23' E 000°20'918.2
2017-Jun-17 20:31N 54°27' E 000°06'918.2
2017-Jun-17 20:01N 54°32' W 000°07'918.4
2017-Jun-17 19:31N 54°37' W 000°20'3218.1
2017-Jun-17 17:46N 54°54' W 001°07'517.8
2017-Jun-17 17:30N 54°57' W 001°13'815.2
2017-Jun-17 16:59N 55°01' W 001°25'2 3.2
2017-Jun-17 16:30N 54°59' W 001°27'0 0.0
2017-Jun-17 16:00N 54°59' W 001°27'0 0.0
2017-Jun-17 15:30N 54°59' W 001°27'0 0.0
2017-Jun-17 15:00N 54°59' W 001°27'0 0.0
2017-Jun-17 14:30N 54°59' W 001°27'0 0.0
2017-Jun-17 13:31N 54°59' W 001°27'0 0.0
2017-Jun-17 13:01N 54°59' W 001°27'0 0.0
2017-Jun-17 12:23N 54°59' W 001°27'0 0.0
2017-Jun-17 11:59N 54°59' W 001°27'0 0.0
2017-Jun-17 11:23N 54°59' W 001°27'0 0.0
2017-Jun-17 10:53N 54°59' W 001°27'0 0.0
2017-Jun-17 10:23N 54°59' W 001°27'0 0.0
2017-Jun-17 09:53N 54°59' W 001°27'0 0.0
2017-Jun-17 09:29N 54°59' W 001°27'0 0.0
2017-Jun-17 08:59N 54°59' W 001°27'0 0.0
2017-Jun-17 08:23N 54°59' W 001°27'0 0.4
2017-Jun-17 08:01N 54°60' W 001°27'4 8.5
2017-Jun-17 07:31N 55°00' W 001°19'714.6
2017-Jun-17 07:00N 54°56' W 001°09'3117.7
2017-Jun-17 05:16N 54°40' W 000°24'517.9
2017-Jun-17 05:00N 54°37' W 000°17'918.3
2017-Jun-17 04:30N 54°32' W 000°04'918.3
2017-Jun-17 04:00N 54°27' E 000°09'918.3
2017-Jun-17 03:30N 54°22' E 000°23'17316.1
2017-Jun-16 16:45N 52°38' E 004°15'314.0
2017-Jun-16 16:30N 52°35' E 004°19'713.5
2017-Jun-16 16:00N 52°31' E 004°27'611.5
2017-Jun-16 15:30N 52°28' E 004°35'0 0.1
2017-Jun-16 15:00N 52°28' E 004°35'0 0.0
2017-Jun-16 14:29N 52°28' E 004°35'0 0.0
2017-Jun-16 13:26N 52°28' E 004°35'0 0.0
2017-Jun-16 12:59N 52°28' E 004°35'0 0.0
2017-Jun-16 12:29N 52°28' E 004°35'0 0.0
2017-Jun-16 11:59N 52°28' E 004°35'0 0.0
2017-Jun-16 11:29N 52°28' E 004°35'0 0.0
2017-Jun-16 10:59N 52°28' E 004°35'0 0.0
2017-Jun-16 10:29N 52°28' E 004°35'0 0.0
2017-Jun-16 09:59N 52°28' E 004°35'0 0.0
2017-Jun-16 09:29N 52°28' E 004°35'0 0.0
2017-Jun-16 08:59N 52°28' E 004°35'0 0.0
2017-Jun-16 08:26N 52°28' E 004°35'0 0.0
2017-Jun-16 07:59N 52°28' E 004°35'0 0.0
2017-Jun-16 07:30N 52°28' E 004°35'5 9.1
2017-Jun-16 07:00N 52°29' E 004°28'917.7
2017-Jun-16 06:30N 52°36' E 004°18'917.7
2017-Jun-16 05:59N 52°41' E 004°06'714.6
2017-Jun-16 05:30N 52°46' E 003°58'15018.3
2017-Jun-15 21:20N 54°15' E 000°35'720.3
2017-Jun-15 21:00N 54°17' E 000°25'1020.5
2017-Jun-15 20:30N 54°23' E 000°10'1020.6
2017-Jun-15 20:00N 54°29' W 000°04'1020.6
2017-Jun-15 19:30N 54°36' W 000°18'2320.3
2017-Jun-15 18:23N 54°49' W 000°50'820.2
2017-Jun-15 18:00N 54°53' W 001°02'917.3
2017-Jun-15 17:30N 54°57' W 001°14'714.6
2017-Jun-15 17:00N 55°00' W 001°26'1 2.4
2017-Jun-15 16:30N 54°59' W 001°27'0 0.0
2017-Jun-15 16:00N 54°59' W 001°27'0 0.0
2017-Jun-15 15:30N 54°59' W 001°27'0 0.0
2017-Jun-15 14:59N 54°59' W 001°27'0 0.0
2017-Jun-15 13:50N 54°59' W 001°27'0 0.0
2017-Jun-15 13:24N 54°59' W 001°27'0 0.0
2017-Jun-15 12:53N 54°59' W 001°27'0 0.0
2017-Jun-15 12:26N 54°59' W 001°27'0 0.0
2017-Jun-15 12:00N 54°59' W 001°27'0 0.0
2017-Jun-15 11:30N 54°59' W 001°27'0 0.0
2017-Jun-15 10:59N 54°59' W 001°27'0 0.0
2017-Jun-15 10:23N 54°59' W 001°27'0 0.0
2017-Jun-15 09:53N 54°59' W 001°27'0 0.0
2017-Jun-15 09:23N 54°59' W 001°27'0 0.0
2017-Jun-15 08:53N 54°59' W 001°27'0 0.0
2017-Jun-15 08:26N 54°59' W 001°27'1 1.6
2017-Jun-15 08:00N 55°00' W 001°27'5 9.2
2017-Jun-15 07:30N 54°60' W 001°19'714.8
2017-Jun-15 07:00N 54°55' W 001°08'714.8
2017-Jun-15 06:30N 54°51' W 000°57'814.7
2017-Jun-15 05:58N 54°47' W 000°46'714.1
2017-Jun-15 05:27N 54°43' W 000°35'814.3
2017-Jun-15 04:55N 54°39' W 000°24'614.1
2017-Jun-15 04:30N 54°36' W 000°15'714.3
2017-Jun-15 04:00N 54°32' W 000°05'714.5
2017-Jun-15 03:30N 54°28' E 000°06'714.2
2017-Jun-15 03:00N 54°25' E 000°16'714.5
2017-Jun-15 02:30N 54°21' E 000°26'714.5
2017-Jun-15 02:00N 54°17' E 000°37'917.0
2017-Jun-15 01:30N 54°12' E 000°49'919.1
2017-Jun-15 01:00N 54°07' E 001°03'918.8
2017-Jun-15 00:30N 54°02' E 001°16'11018.1
2017-Jun-14 18:26N 52°55' E 003°42'919.1
2017-Jun-14 17:59N 52°49' E 003°52'918.8
2017-Jun-14 17:30N 52°44' E 004°05'919.0
2017-Jun-14 17:00N 52°37' E 004°16'917.4
2017-Jun-14 16:30N 52°32' E 004°27'612.2
2017-Jun-14 16:00N 52°28' E 004°35'0 0.6
2017-Jun-14 15:29N 52°28' E 004°35'0 0.0
2017-Jun-14 14:59N 52°28' E 004°35'0 0.0
2017-Jun-14 13:59N 52°28' E 004°35'0 0.0
2017-Jun-14 13:29N 52°28' E 004°35'0 0.0
2017-Jun-14 12:59N 52°28' E 004°35'0 0.0
2017-Jun-14 12:29N 52°28' E 004°35'0 0.0
2017-Jun-14 11:59N 52°28' E 004°35'0 0.0
2017-Jun-14 11:29N 52°28' E 004°35'0 0.0
2017-Jun-14 10:56N 52°28' E 004°35'0 0.0
2017-Jun-14 10:29N 52°28' E 004°35'0 0.0
2017-Jun-14 09:59N 52°28' E 004°35'0 0.0
2017-Jun-14 09:29N 52°28' E 004°35'0 0.0
2017-Jun-14 08:59N 52°28' E 004°35'0 0.0
2017-Jun-14 08:29N 52°28' E 004°35'0 0.0
2017-Jun-14 07:59N 52°28' E 004°35'0 0.4
2017-Jun-14 07:31N 52°28' E 004°35'713.5
2017-Jun-14 07:00N 52°31' E 004°25'816.9
2017-Jun-14 06:30N 52°37' E 004°15'917.2
2017-Jun-14 06:00N 52°42' E 004°04'917.1
2017-Jun-14 05:30N 52°48' E 003°54'917.3
2017-Jun-14 05:00N 52°54' E 003°43'917.4
2017-Jun-14 04:30N 52°59' E 003°32'12817.1
2017-Jun-13 21:00N 54°16' E 000°38'917.8
2017-Jun-13 20:30N 54°21' E 000°26'  

Dump ship's entire track history